createdAt,value
2022-08-21T00:03:03.763Z,38.82
2022-08-21T00:08:06.331Z,39.00
2022-08-21T00:13:08.849Z,39.27
2022-08-21T00:18:11.766Z,39.79
2022-08-21T00:23:14.450Z,39.48
2022-08-21T00:28:17.023Z,39.74
2022-08-21T00:33:19.150Z,39.64
2022-08-21T00:38:21.311Z,39.85
2022-08-21T00:43:31.309Z,39.89
2022-08-21T00:48:34.459Z,40.22
2022-08-21T00:53:40.167Z,40.21
2022-08-21T00:58:44.036Z,39.94
2022-08-21T01:03:46.919Z,40.20
2022-08-21T01:08:49.657Z,40.41
2022-08-21T01:13:52.919Z,40.23
2022-08-21T01:18:55.361Z,40.36
2022-08-21T01:23:58.213Z,40.63
2022-08-21T01:29:06.666Z,40.88
2022-08-21T01:34:10.030Z,40.85
2022-08-21T01:39:13.056Z,40.91
2022-08-21T01:44:15.365Z,41.24
2022-08-21T01:49:18.407Z,41.04
2022-08-21T01:54:20.792Z,41.08
2022-08-21T01:59:24.681Z,41.42
2022-08-21T02:04:26.911Z,41.43
2022-08-21T02:09:29.588Z,41.64
2022-08-21T02:14:32.958Z,41.82
2022-08-21T02:19:40.080Z,41.76
2022-08-21T02:24:53.600Z,41.44
2022-08-21T02:29:58.363Z,41.60
2022-08-21T02:35:00.515Z,41.26
2022-08-21T02:40:02.927Z,41.40
2022-08-21T02:45:06.418Z,41.18
2022-08-21T02:50:08.995Z,40.82
2022-08-21T02:55:11.126Z,41.05
2022-08-21T03:00:14.831Z,40.33
2022-08-21T03:05:18.860Z,40.18
2022-08-21T03:10:22.842Z,40.55
2022-08-21T03:15:25.437Z,40.73
2022-08-21T03:20:29.616Z,40.47
2022-08-21T03:25:40.598Z,39.98
2022-08-21T03:30:47.600Z,40.02
2022-08-21T03:36:01.637Z,39.46
2022-08-21T03:41:05.269Z,39.29
2022-08-21T03:46:08.758Z,39.22
2022-08-21T03:51:11.170Z,38.73
2022-08-21T03:56:13.546Z,38.41
2022-08-21T04:01:15.732Z,38.38
2022-08-21T04:06:18.856Z,37.83
2022-08-21T04:11:21.159Z,37.77
2022-08-21T04:16:23.333Z,37.52
2022-08-21T04:21:25.465Z,37.00
2022-08-21T04:26:28.705Z,36.74
2022-08-21T04:31:31.123Z,36.07
2022-08-21T04:36:34.762Z,36.12
2022-08-21T04:41:37.410Z,35.46
2022-08-21T04:46:39.606Z,35.66
2022-08-21T04:51:42.174Z,35.09
2022-08-21T04:56:50.822Z,35.09
2022-08-21T05:01:56.029Z,35.25
2022-08-21T05:07:01.386Z,34.66
2022-08-21T05:12:04.020Z,34.34
2022-08-21T05:17:06.366Z,32.68
2022-08-21T05:22:10.361Z,31.64
2022-08-21T05:27:12.480Z,29.66
2022-08-21T05:32:19.897Z,29.33
2022-08-21T05:37:22.473Z,28.52
2022-08-21T05:42:24.581Z,27.62
2022-08-21T05:47:26.828Z,26.08
2022-08-21T05:52:28.919Z,25.61
2022-08-21T05:57:31.056Z,25.92
2022-08-21T06:02:33.185Z,25.35
2022-08-21T06:07:35.538Z,24.65
2022-08-21T06:12:38.799Z,23.53
2022-08-21T06:17:44.648Z,23.02
2022-08-21T06:22:46.891Z,22.28
2022-08-21T06:27:49.194Z,21.63
2022-08-21T06:32:51.365Z,21.25
2022-08-21T06:37:53.591Z,21.35
2022-08-21T06:42:55.912Z,20.99
2022-08-21T06:47:58.049Z,20.14
2022-08-21T06:53:06.079Z,19.03
2022-08-21T06:58:09.078Z,19.14
2022-08-21T07:03:38.039Z,19.99
2022-08-21T07:08:40.614Z,18.51
2022-08-21T07:13:42.838Z,17.68
2022-08-21T07:18:45.117Z,17.29
2022-08-21T07:23:51.083Z,16.52
2022-08-21T07:28:54.597Z,15.91
2022-08-21T07:33:57.207Z,15.67
2022-08-21T07:38:59.610Z,15.37
2022-08-21T07:44:01.950Z,14.44
2022-08-21T07:49:04.183Z,14.39
2022-08-21T07:54:06.420Z,14.45
2022-08-21T07:59:09.798Z,14.03
2022-08-21T08:04:11.989Z,13.86
2022-08-21T08:09:14.263Z,13.01
2022-08-21T08:14:16.864Z,12.15
2022-08-21T08:19:19.083Z,12.49
2022-08-21T08:24:21.748Z,12.22
2022-08-21T08:29:24.011Z,12.03
2022-08-21T08:34:26.331Z,12.74
2022-08-21T08:39:29.542Z,12.62
2022-08-21T08:44:32.050Z,12.46
2022-08-21T08:49:59.409Z,12.11
2022-08-21T08:55:10.885Z,12.32
2022-08-21T09:00:15.828Z,11.91
2022-08-21T09:05:30.349Z,12.25
2022-08-21T09:10:38.973Z,11.49
2022-08-21T09:16:10.999Z,11.40
2022-08-21T09:21:34.841Z,9.96
2022-08-21T09:26:55.630Z,11.57
2022-08-21T09:31:57.766Z,11.82
2022-08-21T09:37:00.640Z,12.24
2022-08-21T09:42:09.471Z,12.09
2022-08-21T09:47:13.888Z,12.50
2022-08-21T09:52:23.318Z,13.13
2022-08-21T09:57:46.894Z,12.93
2022-08-21T10:02:52.928Z,13.02
2022-08-21T10:07:55.088Z,12.52
2022-08-21T10:12:57.507Z,12.24
2022-08-21T10:18:21.293Z,12.84
2022-08-21T10:23:51.677Z,12.97
2022-08-21T10:29:16.529Z,13.39
2022-08-21T10:34:35.966Z,13.69
2022-08-21T10:40:01.317Z,13.45
2022-08-21T10:45:10.932Z,13.90
2022-08-21T10:50:15.957Z,13.89
2022-08-21T10:55:32.282Z,14.46
2022-08-21T11:00:46.188Z,14.92
2022-08-21T11:05:55.317Z,14.75
2022-08-21T11:11:16.127Z,14.75
2022-08-21T11:16:45.106Z,14.00
2022-08-21T11:22:01.486Z,14.35
2022-08-21T11:27:19.327Z,14.03
2022-08-21T11:32:42.735Z,14.65
2022-08-21T11:38:09.112Z,14.83
2022-08-21T11:43:29.717Z,14.71
2022-08-21T11:48:56.110Z,14.86
2022-08-21T11:54:08.151Z,14.93
2022-08-21T11:59:17.785Z,15.16
2022-08-21T12:04:32.215Z,15.55
2022-08-21T12:09:37.841Z,15.25
2022-08-21T12:14:51.038Z,15.89
2022-08-21T12:20:01.229Z,16.12
2022-08-21T12:25:12.697Z,15.72
2022-08-21T12:30:27.523Z,16.14
2022-08-21T12:35:52.546Z,15.97
2022-08-21T12:41:02.928Z,15.85
2022-08-21T12:46:06.238Z,15.80
2022-08-21T12:51:16.699Z,15.87
2022-08-21T12:56:22.473Z,16.25
2022-08-21T13:01:37.093Z,16.37
2022-08-21T13:06:46.801Z,16.93
2022-08-21T13:11:50.072Z,16.83
2022-08-21T13:16:59.931Z,17.02
2022-08-21T13:22:03.928Z,17.13
2022-08-21T13:27:29.602Z,17.58
2022-08-21T13:32:35.348Z,17.67
2022-08-21T13:37:41.586Z,17.83
2022-08-21T13:42:47.627Z,18.02
2022-08-21T13:47:50.315Z,18.06
2022-08-21T13:52:59.605Z,18.33
2022-08-21T13:58:05.037Z,18.75
2022-08-21T14:03:10.854Z,18.82
2022-08-21T14:08:30.136Z,18.65
2022-08-21T14:13:40.934Z,19.09
2022-08-21T14:18:50.651Z,19.52
2022-08-21T14:24:08.574Z,19.09
2022-08-21T14:29:11.518Z,19.62
2022-08-21T14:34:19.265Z,19.51
2022-08-21T14:39:23.086Z,20.12
2022-08-21T14:44:25.545Z,20.38
2022-08-21T14:49:29.612Z,20.38
2022-08-21T14:54:32.840Z,20.58
2022-08-21T14:59:39.043Z,20.50
2022-08-21T15:04:42.895Z,20.68
2022-08-21T15:09:45.058Z,20.38
2022-08-21T15:14:47.757Z,20.62
2022-08-21T15:19:50.004Z,20.81
2022-08-21T15:24:52.632Z,20.87
2022-08-21T15:29:55.447Z,21.33
2022-08-21T15:34:58.903Z,21.52
2022-08-21T15:40:01.344Z,21.31
2022-08-21T15:45:06.751Z,21.86
2022-08-21T15:50:10.359Z,22.26
2022-08-21T15:55:13.239Z,22.46
2022-08-21T16:00:19.721Z,22.88
2022-08-21T16:05:23.325Z,23.04
2022-08-21T16:10:29.842Z,23.04
2022-08-21T16:15:33.293Z,23.11
2022-08-21T16:20:35.683Z,23.27
2022-08-21T16:25:40.020Z,23.33
2022-08-21T16:30:45.683Z,23.25
2022-08-21T16:35:48.243Z,23.44
2022-08-21T16:40:51.217Z,23.39
2022-08-21T16:45:55.344Z,23.85
2022-08-21T16:50:59.187Z,24.02
2022-08-21T16:56:01.724Z,24.55
2022-08-21T17:01:08.092Z,24.87
2022-08-21T17:06:10.811Z,24.65
2022-08-21T17:11:35.380Z,24.28
2022-08-21T17:16:44.541Z,24.85
2022-08-21T17:21:47.109Z,25.01
2022-08-21T17:26:50.028Z,24.99
2022-08-21T17:31:52.282Z,25.05
2022-08-21T17:36:54.417Z,25.08
2022-08-21T17:41:59.995Z,25.34
2022-08-21T17:47:02.190Z,25.02
2022-08-21T17:52:05.475Z,25.16
2022-08-21T17:57:08.844Z,25.24
2022-08-21T18:02:19.417Z,25.17
2022-08-21T18:07:32.273Z,25.32
2022-08-21T18:12:35.851Z,25.11
2022-08-21T18:17:38.177Z,24.89
2022-08-21T18:22:40.467Z,24.78
2022-08-21T18:27:46.003Z,24.58
2022-08-21T18:32:48.951Z,24.80
2022-08-21T18:37:51.348Z,24.69
2022-08-21T18:42:55.847Z,24.57
2022-08-21T18:47:58.983Z,24.66
2022-08-21T18:53:01.278Z,24.80
2022-08-21T18:58:03.890Z,24.98
2022-08-21T19:03:08.089Z,24.99
2022-08-21T19:08:12.806Z,25.22
2022-08-21T19:13:17.857Z,25.43
2022-08-21T19:18:24.190Z,25.30
2022-08-21T19:23:31.257Z,25.38
2022-08-21T19:28:44.749Z,25.32
2022-08-21T19:33:57.565Z,25.31
2022-08-21T19:44:29.418Z,25.57
2022-08-21T19:49:34.373Z,25.56
2022-08-21T19:54:36.645Z,25.95
2022-08-21T19:59:40.746Z,25.59
2022-08-21T20:04:53.867Z,25.77
2022-08-21T20:09:57.477Z,26.01
2022-08-21T20:15:01.886Z,25.94
2022-08-21T20:20:06.014Z,26.08
2022-08-21T20:25:09.045Z,26.19
2022-08-21T20:30:13.185Z,26.33
2022-08-21T20:35:15.976Z,26.66
2022-08-21T20:40:20.896Z,26.53
2022-08-21T20:45:29.332Z,26.51
2022-08-21T20:50:37.319Z,26.99
2022-08-21T20:55:46.170Z,27.11
2022-08-21T21:00:50.310Z,27.52
2022-08-21T21:06:03.622Z,27.42
2022-08-21T21:11:13.707Z,27.81
2022-08-21T21:16:40.403Z,27.51
2022-08-21T21:21:57.032Z,27.55
2022-08-21T21:27:11.659Z,28.19
2022-08-21T21:32:18.221Z,28.17
2022-08-21T21:37:33.837Z,28.13
2022-08-21T21:42:49.275Z,28.23
2022-08-21T21:47:57.445Z,28.31
2022-08-21T21:53:12.293Z,28.39
2022-08-21T21:58:26.725Z,28.65
2022-08-21T22:03:40.607Z,28.57
2022-08-21T22:08:59.550Z,29.07
2022-08-21T22:14:13.681Z,29.09
2022-08-21T22:19:30.753Z,29.19
2022-08-21T22:24:37.646Z,29.37
2022-08-21T22:29:49.182Z,29.64
2022-08-21T22:35:13.281Z,29.03
2022-08-21T22:40:32.145Z,29.63
2022-08-21T22:46:06.039Z,29.85
2022-08-21T22:51:13.087Z,30.65
2022-08-21T22:56:32.270Z,30.12
2022-08-21T23:01:44.653Z,30.81
2022-08-21T23:12:50.240Z,30.20
2022-08-21T23:18:27.199Z,30.62
2022-08-21T23:23:34.953Z,31.66
2022-08-21T23:28:52.455Z,31.17
2022-08-21T23:34:15.750Z,31.36
2022-08-21T23:39:44.046Z,31.16
2022-08-21T23:45:32.984Z,30.91
2022-08-21T23:51:03.540Z,31.21
2022-08-21T23:56:37.739Z,31.51
